createdAt,value
2018-06-15T00:01:57.105Z,101109.98
2018-06-15T00:04:31.488Z,101110.67
2018-06-15T00:07:06.368Z,101107.95
2018-06-15T00:09:41.311Z,101109.83
2018-06-15T00:12:15.880Z,101107.47
2018-06-15T00:14:50.592Z,101109.19
2018-06-15T00:17:24.832Z,101108.31
2018-06-15T00:19:59.953Z,101104.59
2018-06-15T00:22:34.879Z,101101.58
2018-06-15T00:25:09.913Z,101105.58
2018-06-15T00:27:44.552Z,101099.13
2018-06-15T00:30:19.544Z,101102.86
2018-06-15T00:32:54.260Z,101101.09
2018-06-15T00:35:29.584Z,101107.90
2018-06-15T00:38:04.160Z,101109.74
2018-06-15T00:40:39.244Z,101112.70
2018-06-15T00:43:13.992Z,101111.18
2018-06-15T00:45:48.981Z,101114.45
2018-06-15T00:48:24.502Z,101109.53
2018-06-15T00:50:59.664Z,101108.09
2018-06-15T00:53:34.877Z,101105.58
2018-06-15T00:56:09.697Z,101107.30
2018-06-15T00:58:45.114Z,101114.61
2018-06-15T01:01:20.212Z,101106.73
2018-06-15T01:03:56.221Z,101112.05
2018-06-15T01:06:31.460Z,101107.45
2018-06-15T01:09:07.773Z,101108.28
2018-06-15T01:11:42.256Z,101108.23
2018-06-15T01:14:17.464Z,101104.22
2018-06-15T01:16:52.270Z,101097.97
2018-06-15T01:19:27.593Z,101099.33
2018-06-15T01:22:02.217Z,101096.73
2018-06-15T01:24:36.833Z,101095.38
2018-06-15T01:27:11.994Z,101105.95
2018-06-15T01:29:46.969Z,101097.08
2018-06-15T01:32:21.447Z,101097.40
2018-06-15T01:34:56.688Z,101095.61
2018-06-15T01:37:31.203Z,101098.69
2018-06-15T01:40:06.293Z,101094.80
2018-06-15T01:42:40.753Z,101102.13
2018-06-15T01:45:15.837Z,101096.64
2018-06-15T01:47:51.110Z,101098.37
2018-06-15T01:50:25.908Z,101100.59
2018-06-15T01:53:01.226Z,101098.95
2018-06-15T01:55:36.504Z,101099.63
2018-06-15T01:58:11.407Z,101104.87
2018-06-15T02:00:46.768Z,101101.23
2018-06-15T02:03:22.068Z,101110.52
2018-06-15T02:05:56.893Z,101118.67
2018-06-15T02:08:31.665Z,101103.95
2018-06-15T02:11:07.015Z,101108.95
2018-06-15T02:13:41.905Z,101109.52
2018-06-15T02:16:17.151Z,101103.47
2018-06-15T02:18:52.445Z,101105.59
2018-06-15T02:21:28.513Z,101112.86
2018-06-15T02:24:03.052Z,101102.38
2018-06-15T02:26:37.917Z,101107.37
2018-06-15T02:29:12.977Z,101109.57
2018-06-15T02:31:47.792Z,101108.21
2018-06-15T02:34:22.320Z,101103.09
2018-06-15T02:36:57.112Z,101111.25
2018-06-15T02:39:32.420Z,101109.57
2018-06-15T02:42:07.742Z,101109.09
2018-06-15T02:44:42.758Z,101110.58
2018-06-15T02:47:17.398Z,101118.70
2018-06-15T02:49:52.280Z,101114.06
2018-06-15T02:52:27.003Z,101118.98
2018-06-15T02:55:02.317Z,101111.50
2018-06-15T02:57:36.965Z,101111.18
2018-06-15T03:00:11.509Z,101104.29
2018-06-15T03:02:46.467Z,101109.88
2018-06-15T03:05:21.401Z,101114.75
2018-06-15T03:07:56.172Z,101115.03
2018-06-15T03:10:31.168Z,101123.36
2018-06-15T03:13:05.996Z,101125.27
2018-06-15T03:15:40.896Z,101127.48
2018-06-15T03:18:15.657Z,101129.28
2018-06-15T03:20:50.220Z,101127.25
2018-06-15T03:23:25.777Z,101132.01
2018-06-15T03:26:00.541Z,101137.00
2018-06-15T03:28:35.317Z,101134.96
2018-06-15T03:31:10.330Z,101134.38
2018-06-15T03:33:45.145Z,101143.50
2018-06-15T03:36:19.996Z,101150.10
2018-06-15T03:38:55.018Z,101146.22
2018-06-15T03:41:29.965Z,101152.02
2018-06-15T03:44:05.301Z,101154.22
2018-06-15T03:46:40.232Z,101159.98
2018-06-15T03:49:15.387Z,101157.11
2018-06-15T03:51:50.838Z,101159.74
2018-06-15T03:54:25.392Z,101153.85
2018-06-15T03:57:00.584Z,101161.94
2018-06-15T03:59:35.247Z,101159.52
2018-06-15T04:02:10.155Z,101156.25
2018-06-15T04:04:45.288Z,101165.53
2018-06-15T04:07:20.567Z,101169.16
2018-06-15T04:09:55.639Z,101168.00
2018-06-15T04:12:30.802Z,101169.52
2018-06-15T04:15:05.657Z,101174.16
2018-06-15T04:17:40.958Z,101174.35
2018-06-15T04:20:15.161Z,101177.56
2018-06-15T04:22:50.057Z,101180.35
2018-06-15T04:25:25.163Z,101171.76
2018-06-15T04:28:00.400Z,101176.55
2018-06-15T04:30:35.212Z,101175.61
2018-06-15T04:33:10.376Z,101177.03
2018-06-15T04:35:45.401Z,101173.13
2018-06-15T04:38:20.253Z,101177.03
2018-06-15T04:40:55.172Z,101182.42
2018-06-15T04:43:29.705Z,101178.50
2018-06-15T04:46:04.707Z,101181.96
2018-06-15T04:48:39.172Z,101180.33
2018-06-15T04:51:14.063Z,101186.00
2018-06-15T04:53:48.812Z,101180.20
2018-06-15T04:56:24.313Z,101182.95
2018-06-15T04:59:00.152Z,101183.20
2018-06-15T05:01:34.798Z,101185.36
2018-06-15T05:04:09.797Z,101191.38
2018-06-15T05:06:44.406Z,101196.17
2018-06-15T05:09:19.429Z,101197.16
2018-06-15T05:11:54.055Z,101191.98
2018-06-15T05:14:29.001Z,101194.95
2018-06-15T05:17:03.240Z,101200.75
2018-06-15T05:19:38.393Z,101205.64
2018-06-15T05:22:13.065Z,101210.16
2018-06-15T05:24:48.005Z,101214.63
2018-06-15T05:27:23.137Z,101206.15
2018-06-15T05:29:57.688Z,101203.13
2018-06-15T05:32:33.241Z,101208.78
2018-06-15T05:35:08.533Z,101211.75
2018-06-15T05:37:42.881Z,101217.75
2018-06-15T05:40:18.434Z,101217.45
2018-06-15T05:42:53.357Z,101222.22
2018-06-15T05:45:28.344Z,101219.66
2018-06-15T05:48:02.889Z,101217.09
2018-06-15T05:50:38.157Z,101216.22
2018-06-15T05:53:13.369Z,101224.64
2018-06-15T05:55:48.321Z,101219.45
2018-06-15T05:58:23.192Z,101223.97
2018-06-15T06:00:58.242Z,101225.53
2018-06-15T06:03:32.763Z,101225.11
2018-06-15T06:06:08.017Z,101218.51
2018-06-15T06:08:46.217Z,101231.86
2018-06-15T06:11:20.751Z,101230.86
2018-06-15T06:13:55.629Z,101228.84
2018-06-15T06:16:30.169Z,101235.53
2018-06-15T06:19:05.624Z,101235.59
2018-06-15T06:21:40.144Z,101234.09
2018-06-15T06:24:14.708Z,101238.23
2018-06-15T06:26:49.465Z,101243.48
2018-06-15T06:29:24.548Z,101239.47
2018-06-15T06:31:59.509Z,101243.52
2018-06-15T06:34:33.966Z,101245.75
2018-06-15T06:37:09.199Z,101251.98
2018-06-15T06:39:44.363Z,101256.00
2018-06-15T06:42:19.409Z,101256.53
2018-06-15T06:44:54.412Z,101253.63
2018-06-15T06:47:29.274Z,101256.53
2018-06-15T06:50:04.161Z,101265.88
2018-06-15T06:52:38.949Z,101272.03
2018-06-15T06:55:14.141Z,101266.92
2018-06-15T06:57:49.644Z,101276.32
2018-06-15T07:00:24.873Z,101271.37
2018-06-15T07:02:59.813Z,101277.34
2018-06-15T07:05:34.879Z,101273.41
2018-06-15T07:08:09.566Z,101275.73
2018-06-15T07:10:44.744Z,101271.16
2018-06-15T07:13:19.280Z,101268.28
2018-06-15T07:15:54.007Z,101268.68
2018-06-15T07:18:28.701Z,101275.02
2018-06-15T07:21:03.794Z,101271.37
2018-06-15T07:23:38.245Z,101276.98
2018-06-15T07:26:13.414Z,101271.41
2018-06-15T07:28:48.016Z,101272.01
2018-06-15T07:31:22.846Z,101265.55
2018-06-15T07:33:57.882Z,101273.78
2018-06-15T07:36:32.596Z,101271.77
2018-06-15T07:39:08.624Z,101271.83
2018-06-15T07:41:43.454Z,101264.50
2018-06-15T07:44:18.017Z,101269.65
2018-06-15T07:46:53.077Z,101272.73
2018-06-15T07:49:28.009Z,101272.03
2018-06-15T07:52:03.329Z,101261.77
2018-06-15T07:54:38.287Z,101266.58
2018-06-15T07:57:13.054Z,101272.58
2018-06-15T07:59:47.478Z,101269.85
2018-06-15T08:02:22.257Z,101270.38
2018-06-15T08:04:57.377Z,101276.39
2018-06-15T08:07:32.323Z,101273.64
2018-06-15T08:10:07.572Z,101276.00
2018-06-15T08:12:42.653Z,101276.00
2018-06-15T08:15:17.650Z,101270.13
2018-06-15T08:17:52.582Z,101272.50
2018-06-15T08:20:27.777Z,101274.34
2018-06-15T08:23:02.246Z,101272.26
2018-06-15T08:25:37.069Z,101282.47
2018-06-15T08:28:12.013Z,101281.51
2018-06-15T08:30:46.754Z,101278.02
2018-06-15T08:33:21.792Z,101277.00
2018-06-15T08:35:57.058Z,101280.28
2018-06-15T08:38:31.864Z,101280.05
2018-06-15T08:41:06.649Z,101284.30
2018-06-15T08:43:41.408Z,101283.96
2018-06-15T08:46:16.749Z,101283.47
2018-06-15T08:48:51.920Z,101280.97
2018-06-15T08:51:27.057Z,101280.52
2018-06-15T08:54:01.930Z,101284.59
2018-06-15T08:56:36.980Z,101279.75
2018-06-15T08:59:11.840Z,101283.38
2018-06-15T09:01:46.866Z,101286.21
2018-06-15T09:04:21.511Z,101281.52
2018-06-15T09:06:56.600Z,101274.53
2018-06-15T09:09:31.880Z,101280.87
2018-06-15T09:12:06.957Z,101282.89
2018-06-15T09:14:42.210Z,101279.77
2018-06-15T09:17:17.405Z,101276.11
2018-06-15T09:19:52.621Z,101278.03
2018-06-15T09:22:27.292Z,101282.78
2018-06-15T09:25:02.609Z,101276.06
2018-06-15T09:27:37.297Z,101279.48
2018-06-15T09:30:12.173Z,101274.27
2018-06-15T09:32:46.713Z,101276.41
2018-06-15T09:35:21.735Z,101280.03
2018-06-15T09:37:56.193Z,101284.23
2018-06-15T09:40:31.249Z,101276.70
2018-06-15T09:43:06.045Z,101283.97
2018-06-15T09:45:40.450Z,101284.39
2018-06-15T09:48:15.401Z,101280.01
2018-06-15T09:50:50.684Z,101278.94
2018-06-15T09:53:25.421Z,101274.77
2018-06-15T09:56:00.375Z,101275.33
2018-06-15T09:58:35.153Z,101276.45
2018-06-15T10:01:11.192Z,101279.80
2018-06-15T10:03:46.034Z,101280.96
2018-06-15T10:06:20.729Z,101281.92
2018-06-15T10:08:55.765Z,101275.81
2018-06-15T10:11:30.927Z,101283.70
2018-06-15T10:14:05.841Z,101280.38
2018-06-15T10:16:41.576Z,101282.92
2018-06-15T10:19:17.197Z,101285.64
2018-06-15T10:21:51.788Z,101281.25
2018-06-15T10:24:27.136Z,101285.22
2018-06-15T10:27:01.807Z,101278.80
2018-06-15T10:29:36.654Z,101280.84
2018-06-15T10:32:11.896Z,101269.84
2018-06-15T10:34:46.929Z,101275.78
2018-06-15T10:37:21.954Z,101279.12
2018-06-15T10:39:57.338Z,101272.77
2018-06-15T10:42:31.824Z,101269.63
2018-06-15T10:45:07.009Z,101268.34
2018-06-15T10:47:41.974Z,101272.76
2018-06-15T10:50:17.253Z,101267.01
2018-06-15T10:52:51.843Z,101267.81
2018-06-15T10:55:26.595Z,101266.66
2018-06-15T10:58:01.485Z,101264.06
2018-06-15T11:00:36.422Z,101263.73
2018-06-15T11:03:11.076Z,101274.92
2018-06-15T11:05:46.293Z,101262.80
2018-06-15T11:08:21.216Z,101266.39
2018-06-15T11:10:56.215Z,101266.63
2018-06-15T11:13:31.022Z,101265.92
2018-06-15T11:16:06.449Z,101257.68
2018-06-15T11:18:41.117Z,101256.87
2018-06-15T11:21:16.181Z,101256.48
2018-06-15T11:23:51.266Z,101253.67
2018-06-15T11:26:26.393Z,101251.45
2018-06-15T11:29:01.325Z,101247.43
2018-06-15T11:31:35.912Z,101242.09
2018-06-15T11:34:10.939Z,101245.82
2018-06-15T11:36:46.164Z,101241.27
2018-06-15T11:39:20.765Z,101240.80
2018-06-15T11:41:55.404Z,101241.97
2018-06-15T11:44:30.785Z,101233.55
2018-06-15T11:47:05.577Z,101235.56
2018-06-15T11:49:40.937Z,101233.08
2018-06-15T11:52:16.348Z,101230.39
2018-06-15T11:54:51.371Z,101228.83
2018-06-15T11:57:26.402Z,101223.81
2018-06-15T12:00:01.402Z,101216.17
2018-06-15T12:02:36.275Z,101220.36
2018-06-15T12:05:11.070Z,101212.19
2018-06-15T12:07:45.764Z,101218.67
2018-06-15T12:10:21.177Z,101222.88
2018-06-15T12:12:55.858Z,101217.85
2018-06-15T12:15:31.002Z,101219.15
2018-06-15T12:18:06.502Z,101215.39
2018-06-15T12:20:41.689Z,101213.70
2018-06-15T12:23:16.700Z,101216.09
2018-06-15T12:25:51.386Z,101212.55
2018-06-15T12:28:25.609Z,101210.17
2018-06-15T12:31:00.268Z,101205.61
2018-06-15T12:33:35.316Z,101212.84
2018-06-15T12:36:10.629Z,101211.84
2018-06-15T12:38:45.289Z,101213.29
2018-06-15T12:41:19.943Z,101207.77
2018-06-15T12:43:54.825Z,101202.69
2018-06-15T12:46:29.852Z,101205.33
2018-06-15T12:49:05.517Z,101201.80
2018-06-15T12:51:40.476Z,101200.50
2018-06-15T12:54:15.176Z,101199.66
2018-06-15T12:56:49.900Z,101198.30
2018-06-15T12:59:25.053Z,101199.35
2018-06-15T13:01:59.669Z,101200.06
2018-06-15T13:04:34.885Z,101196.09
2018-06-15T13:07:10.164Z,101189.37
2018-06-15T13:09:44.669Z,101187.06
2018-06-15T13:12:19.746Z,101194.19
2018-06-15T13:14:54.189Z,101192.36
2018-06-15T13:17:29.550Z,101191.17
2018-06-15T13:20:04.036Z,101192.50
2018-06-15T13:22:39.371Z,101187.30
2018-06-15T13:25:14.121Z,101187.69
2018-06-15T13:27:49.140Z,101185.16
2018-06-15T13:30:24.801Z,101180.30
2018-06-15T13:32:59.220Z,101188.41
2018-06-15T13:35:34.333Z,101184.57
2018-06-15T13:38:09.373Z,101180.84
2018-06-15T13:40:44.047Z,101184.67
2018-06-15T13:43:19.407Z,101185.33
2018-06-15T13:45:54.165Z,101184.58
2018-06-15T13:48:29.437Z,101189.59
2018-06-15T13:51:04.768Z,101185.55
2018-06-15T13:53:41.990Z,101184.03
2018-06-15T13:56:17.540Z,101175.45
2018-06-15T13:58:52.445Z,101174.69
2018-06-15T14:01:27.316Z,101177.00
2018-06-15T14:04:02.677Z,101176.28
2018-06-15T14:06:37.528Z,101180.01
2018-06-15T14:09:12.622Z,101170.23
2018-06-15T14:11:47.462Z,101166.88
2018-06-15T14:14:22.260Z,101166.08
2018-06-15T14:16:57.481Z,101165.54
2018-06-15T14:19:32.378Z,101162.70
2018-06-15T14:22:07.216Z,101160.41
2018-06-15T14:24:42.344Z,101167.41
2018-06-15T14:27:16.769Z,101167.23
2018-06-15T14:29:51.740Z,101164.48
2018-06-15T14:32:26.678Z,101171.42
2018-06-15T14:35:02.062Z,101166.50
2018-06-15T14:37:37.314Z,101165.52
2018-06-15T14:40:12.265Z,101165.75
2018-06-15T14:42:46.541Z,101167.45
2018-06-15T14:45:21.477Z,101165.62
2018-06-15T14:47:56.510Z,101161.79
2018-06-15T14:50:31.640Z,101165.95
2018-06-15T14:53:06.632Z,101167.23
2018-06-15T14:55:42.263Z,101164.03
2018-06-15T14:58:16.482Z,101164.20
2018-06-15T15:00:51.485Z,101155.34
2018-06-15T15:03:26.050Z,101155.67
2018-06-15T15:06:00.851Z,101152.82
2018-06-15T15:08:35.914Z,101151.25
2018-06-15T15:11:10.710Z,101153.66
2018-06-15T15:13:46.212Z,101158.33
2018-06-15T15:16:21.209Z,101152.67
2018-06-15T15:18:56.259Z,101153.06
2018-06-15T15:21:31.705Z,101151.22
2018-06-15T15:24:06.881Z,101153.19
2018-06-15T15:26:41.988Z,101150.58
2018-06-15T15:29:16.883Z,101140.77
2018-06-15T15:31:51.741Z,101151.59
2018-06-15T15:34:26.925Z,101142.48
2018-06-15T15:37:01.839Z,101140.80
2018-06-15T15:39:36.954Z,101140.77
2018-06-15T15:42:11.939Z,101136.98
2018-06-15T15:44:47.041Z,101135.41
2018-06-15T15:47:21.422Z,101133.41
2018-06-15T15:49:56.443Z,101132.73
2018-06-15T15:52:30.888Z,101133.78
2018-06-15T15:55:05.813Z,101124.13
2018-06-15T15:57:41.781Z,101125.53
2018-06-15T16:00:16.217Z,101116.97
2018-06-15T16:02:51.700Z,101118.56
2018-06-15T16:05:26.862Z,101111.13
2018-06-15T16:08:01.414Z,101116.36
2018-06-15T16:10:36.239Z,101116.36
2018-06-15T16:13:11.827Z,101112.64
2018-06-15T16:15:46.425Z,101106.67
2018-06-15T16:18:21.451Z,101113.20
2018-06-15T16:20:56.192Z,101108.20
2018-06-15T16:23:31.681Z,101113.54
2018-06-15T16:26:06.817Z,101109.59
2018-06-15T16:28:41.582Z,101103.00
2018-06-15T16:31:16.564Z,101100.94
2018-06-15T16:33:51.698Z,101101.33
2018-06-15T16:36:27.028Z,101097.45
2018-06-15T16:39:01.396Z,101102.19
2018-06-15T16:41:37.457Z,101096.39
2018-06-15T16:44:12.025Z,101100.37
2018-06-15T16:46:47.077Z,101095.05
2018-06-15T16:49:21.649Z,101093.28
2018-06-15T16:51:56.498Z,101092.51
2018-06-15T16:54:31.664Z,101099.34
2018-06-15T16:57:07.048Z,101093.95
2018-06-15T16:59:42.093Z,101099.55
2018-06-15T17:02:17.350Z,101098.05
2018-06-15T17:04:52.097Z,101105.80
2018-06-15T17:07:27.657Z,101105.09
2018-06-15T17:10:02.178Z,101095.58
2018-06-15T17:12:37.001Z,101095.98
2018-06-15T17:15:11.674Z,101103.35
2018-06-15T17:17:46.281Z,101098.03
2018-06-15T17:20:21.436Z,101096.12
2018-06-15T17:22:56.494Z,101100.92
2018-06-15T17:25:31.532Z,101099.11
2018-06-15T17:28:06.721Z,101100.59
2018-06-15T17:30:41.765Z,101102.56
2018-06-15T17:33:16.696Z,101101.37
2018-06-15T17:35:51.729Z,101104.08
2018-06-15T17:38:26.957Z,101099.72
2018-06-15T17:41:01.615Z,101103.20
2018-06-15T17:43:36.789Z,101103.31
2018-06-15T17:46:12.081Z,101106.16
2018-06-15T17:48:48.004Z,101107.53
2018-06-15T17:51:23.081Z,101097.98
2018-06-15T17:53:57.544Z,101105.57
2018-06-15T17:59:28.777Z,101109.62
2018-06-15T18:02:03.804Z,101117.30
2018-06-15T18:04:38.590Z,101114.55
2018-06-15T18:07:14.293Z,101117.20
2018-06-15T18:09:49.500Z,101110.58
2018-06-15T18:12:24.011Z,101116.04
2018-06-15T18:14:58.725Z,101114.43
2018-06-15T18:17:33.824Z,101118.95
2018-06-15T18:20:08.433Z,101116.80
2018-06-15T18:22:43.068Z,101116.68
2018-06-15T18:25:17.763Z,101119.32
2018-06-15T18:30:32.129Z,101120.58
2018-06-15T18:33:07.560Z,101118.54
2018-06-15T18:35:42.174Z,101118.27
2018-06-15T18:38:17.052Z,101114.02
2018-06-15T18:40:51.902Z,101110.81
2018-06-15T18:43:26.294Z,101119.08
2018-06-15T18:46:01.477Z,101119.41
2018-06-15T18:48:36.923Z,101116.32
2018-06-15T18:51:11.498Z,101114.70
2018-06-15T18:53:46.236Z,101111.94
2018-06-15T18:56:21.942Z,101114.88
2018-06-15T18:58:56.612Z,101117.23
2018-06-15T19:01:31.640Z,101112.06
2018-06-15T19:04:06.944Z,101118.37
2018-06-15T19:06:42.221Z,101111.95
2018-06-15T19:09:17.369Z,101113.62
2018-06-15T19:11:52.244Z,101117.16
2018-06-15T19:14:27.040Z,101110.91
2018-06-15T19:17:01.562Z,101112.91
2018-06-15T19:19:36.428Z,101110.14
2018-06-15T19:22:11.649Z,101114.05
2018-06-15T19:24:46.180Z,101116.07
2018-06-15T19:27:21.208Z,101109.88
2018-06-15T19:29:56.096Z,101114.67
2018-06-15T19:32:31.067Z,101115.20
2018-06-15T19:35:06.221Z,101119.98
2018-06-15T19:37:40.910Z,101115.52
2018-06-15T19:40:16.008Z,101125.58
2018-06-15T19:42:50.913Z,101126.41
2018-06-15T19:45:25.561Z,101119.75
2018-06-15T19:48:00.740Z,101119.14
2018-06-15T19:50:35.848Z,101115.09
2018-06-15T19:53:10.352Z,101114.51
2018-06-15T19:55:45.398Z,101119.53
2018-06-15T19:58:19.828Z,101121.65
2018-06-15T20:00:54.606Z,101123.61
2018-06-15T20:03:29.760Z,101119.73
2018-06-15T20:06:04.697Z,101123.19
2018-06-15T20:08:39.531Z,101126.81
2018-06-15T20:11:14.484Z,101123.23
2018-06-15T20:13:48.760Z,101121.91
2018-06-15T20:16:23.696Z,101125.37
2018-06-15T20:18:58.528Z,101121.83
2018-06-15T20:21:33.421Z,101119.31
2018-06-15T20:24:08.160Z,101119.84
2018-06-15T20:26:42.922Z,101125.31
2018-06-15T20:29:17.956Z,101118.50
2018-06-15T20:31:52.797Z,101111.15
2018-06-15T20:34:27.608Z,101111.80
2018-06-15T20:37:02.429Z,101110.41
2018-06-15T20:39:37.097Z,101111.73
2018-06-15T20:42:12.064Z,101109.30
2018-06-15T20:44:47.240Z,101113.27
2018-06-15T20:47:21.655Z,101106.26
2018-06-15T20:49:56.437Z,101099.28
2018-06-15T20:52:31.797Z,101105.48
2018-06-15T20:55:06.636Z,101105.31
2018-06-15T20:57:41.144Z,101106.00
2018-06-15T21:00:16.080Z,101107.91
2018-06-15T21:02:50.888Z,101108.92
2018-06-15T21:05:25.580Z,101098.31
2018-06-15T21:08:00.380Z,101102.09
2018-06-15T21:10:35.755Z,101106.04
2018-06-15T21:13:10.995Z,101099.55
2018-06-15T21:15:45.514Z,101097.17
2018-06-15T21:18:20.316Z,101100.95
2018-06-15T21:20:55.465Z,101100.28
2018-06-15T21:23:29.956Z,101102.84
2018-06-15T21:26:05.107Z,101108.34
2018-06-15T21:28:39.504Z,101100.43
2018-06-15T21:31:14.815Z,101102.67
2018-06-15T21:33:49.296Z,101109.48
2018-06-15T21:36:24.504Z,101106.42
2018-06-15T21:38:59.072Z,101096.83
2018-06-15T21:41:34.276Z,101099.39
2018-06-15T21:44:09.132Z,101099.58
2018-06-15T21:46:43.641Z,101091.52
2018-06-15T21:49:18.561Z,101084.53
2018-06-15T21:51:53.744Z,101089.97
2018-06-15T21:54:28.876Z,101087.91
2018-06-15T21:57:03.622Z,101083.99
2018-06-15T21:59:38.365Z,101080.41
2018-06-15T22:02:13.030Z,101088.97
2018-06-15T22:04:48.345Z,101087.42
2018-06-15T22:07:23.165Z,101089.28
2018-06-15T22:09:57.752Z,101083.99
2018-06-15T22:12:32.922Z,101096.12
2018-06-15T22:15:07.580Z,101090.13
2018-06-15T22:17:42.288Z,101087.40
2018-06-15T22:20:17.197Z,101089.12
2018-06-15T22:22:52.413Z,101082.79
2018-06-15T22:25:27.452Z,101085.50
2018-06-15T22:28:01.818Z,101085.51
2018-06-15T22:30:36.941Z,101090.28
2018-06-15T22:33:11.613Z,101087.86
2018-06-15T22:35:46.492Z,101088.39
2018-06-15T22:38:21.808Z,101083.10
2018-06-15T22:40:56.180Z,101078.13
2018-06-15T22:43:31.089Z,101082.23
2018-06-15T22:46:06.356Z,101078.80
2018-06-15T22:48:40.768Z,101084.45
2018-06-15T22:51:16.132Z,101095.38
2018-06-15T22:53:50.369Z,101089.22
2018-06-15T22:56:26.256Z,101087.33
2018-06-15T22:59:01.208Z,101088.86
2018-06-15T23:01:36.184Z,101093.52
2018-06-15T23:04:10.657Z,101087.70
2018-06-15T23:06:45.716Z,101086.50
2018-06-15T23:09:20.208Z,101095.22
2018-06-15T23:11:55.189Z,101096.42
2018-06-15T23:14:30.328Z,101094.33
2018-06-15T23:17:04.844Z,101096.16
2018-06-15T23:19:39.560Z,101091.36
2018-06-15T23:22:14.374Z,101100.58
2018-06-15T23:24:49.212Z,101097.00
2018-06-15T23:27:24.249Z,101092.73
2018-06-15T23:29:59.133Z,101091.69
2018-06-15T23:32:34.192Z,101092.21
2018-06-15T23:35:09.277Z,101096.62
2018-06-15T23:37:43.849Z,101096.28
2018-06-15T23:40:19.251Z,101096.80
2018-06-15T23:42:53.729Z,101096.80
2018-06-15T23:45:28.928Z,101095.27
2018-06-15T23:48:03.517Z,101099.36
2018-06-15T23:50:38.696Z,101094.95
2018-06-15T23:53:13.390Z,101098.34
2018-06-15T23:55:47.952Z,101099.22
2018-06-15T23:58:23.120Z,101102.96
